sensor_id;sensor_type;location;lat;lon;timestamp;temperature;humidity
54431;DHT22;40342;52.998;5.862;2023-05-07T00:00:58;14.30;99.90
54431;DHT22;40342;52.998;5.862;2023-05-07T00:03:25;14.30;99.90
54431;DHT22;40342;52.998;5.862;2023-05-07T00:05:51;14.30;99.90
54431;DHT22;40342;52.998;5.862;2023-05-07T00:08:18;14.30;99.90
54431;DHT22;40342;52.998;5.862;2023-05-07T00:10:44;14.30;99.90
54431;DHT22;40342;52.998;5.862;2023-05-07T00:13:10;14.20;99.90
54431;DHT22;40342;52.998;5.862;2023-05-07T00:15:35;14.20;99.90
54431;DHT22;40342;52.998;5.862;2023-05-07T00:18:01;14.20;99.90
54431;DHT22;40342;52.998;5.862;2023-05-07T00:20:26;14.20;99.90
54431;DHT22;40342;52.998;5.862;2023-05-07T00:22:52;14.10;99.90
54431;DHT22;40342;52.998;5.862;2023-05-07T00:25:18;14.10;99.90
54431;DHT22;40342;52.998;5.862;2023-05-07T00:27:45;14.20;99.90
54431;DHT22;40342;52.998;5.862;2023-05-07T00:30:11;14.20;99.90
54431;DHT22;40342;52.998;5.862;2023-05-07T00:32:37;14.10;99.90
54431;DHT22;40342;52.998;5.862;2023-05-07T00:35:03;14.10;99.90
54431;DHT22;40342;52.998;5.862;2023-05-07T00:37:29;14.10;99.90
54431;DHT22;40342;52.998;5.862;2023-05-07T00:39:55;14.10;99.90
54431;DHT22;40342;52.998;5.862;2023-05-07T00:42:21;14.10;99.90
54431;DHT22;40342;52.998;5.862;2023-05-07T00:44:46;14.10;99.90
54431;DHT22;40342;52.998;5.862;2023-05-07T00:47:13;14.10;99.90
54431;DHT22;40342;52.998;5.862;2023-05-07T00:49:41;14.10;99.90
54431;DHT22;40342;52.998;5.862;2023-05-07T00:52:07;14.10;99.90
54431;DHT22;40342;52.998;5.862;2023-05-07T00:54:34;14.10;99.90
54431;DHT22;40342;52.998;5.862;2023-05-07T00:57:02;14.10;99.90
54431;DHT22;40342;52.998;5.862;2023-05-07T00:59:28;14.10;99.90
54431;DHT22;40342;52.998;5.862;2023-05-07T01:01:53;14.10;99.90
54431;DHT22;40342;52.998;5.862;2023-05-07T01:04:19;14.10;99.90
54431;DHT22;40342;52.998;5.862;2023-05-07T01:06:45;14.10;99.90
54431;DHT22;40342;52.998;5.862;2023-05-07T01:09:12;14.10;99.90
54431;DHT22;40342;52.998;5.862;2023-05-07T01:11:38;14.10;99.90
54431;DHT22;40342;52.998;5.862;2023-05-07T01:14:04;14.00;99.90
54431;DHT22;40342;52.998;5.862;2023-05-07T01:16:30;14.00;99.90
54431;DHT22;40342;52.998;5.862;2023-05-07T01:18:56;14.00;99.90
54431;DHT22;40342;52.998;5.862;2023-05-07T01:21:26;14.00;99.90
54431;DHT22;40342;52.998;5.862;2023-05-07T01:23:53;14.00;99.90
54431;DHT22;40342;52.998;5.862;2023-05-07T01:26:20;14.00;99.90
54431;DHT22;40342;52.998;5.862;2023-05-07T01:28:47;13.90;99.90
54431;DHT22;40342;52.998;5.862;2023-05-07T01:31:14;13.90;99.90
54431;DHT22;40342;52.998;5.862;2023-05-07T01:33:41;13.90;99.90
54431;DHT22;40342;52.998;5.862;2023-05-07T01:36:07;13.90;99.90
54431;DHT22;40342;52.998;5.862;2023-05-07T01:38:35;13.90;99.90
54431;DHT22;40342;52.998;5.862;2023-05-07T01:41:02;13.80;99.90
54431;DHT22;40342;52.998;5.862;2023-05-07T01:43:28;13.80;99.90
54431;DHT22;40342;52.998;5.862;2023-05-07T01:45:55;13.80;99.90
54431;DHT22;40342;52.998;5.862;2023-05-07T01:48:21;13.80;99.90
54431;DHT22;40342;52.998;5.862;2023-05-07T01:50:47;13.80;99.90
54431;DHT22;40342;52.998;5.862;2023-05-07T01:53:13;13.80;99.90
54431;DHT22;40342;52.998;5.862;2023-05-07T01:55:38;13.80;99.90
54431;DHT22;40342;52.998;5.862;2023-05-07T01:58:05;13.70;99.90
54431;DHT22;40342;52.998;5.862;2023-05-07T02:00:31;13.80;99.90
54431;DHT22;40342;52.998;5.862;2023-05-07T02:02:57;13.80;99.90
54431;DHT22;40342;52.998;5.862;2023-05-07T02:05:22;13.70;99.90
54431;DHT22;40342;52.998;5.862;2023-05-07T02:07:51;13.70;99.90
54431;DHT22;40342;52.998;5.862;2023-05-07T02:10:17;13.70;99.90
54431;DHT22;40342;52.998;5.862;2023-05-07T02:12:42;13.70;99.90
54431;DHT22;40342;52.998;5.862;2023-05-07T02:15:08;13.70;99.90
54431;DHT22;40342;52.998;5.862;2023-05-07T02:17:34;13.70;99.90
54431;DHT22;40342;52.998;5.862;2023-05-07T02:20:01;13.70;99.90
54431;DHT22;40342;52.998;5.862;2023-05-07T02:22:26;13.60;99.90
54431;DHT22;40342;52.998;5.862;2023-05-07T02:24:52;13.60;99.90
54431;DHT22;40342;52.998;5.862;2023-05-07T02:27:17;13.60;99.90
54431;DHT22;40342;52.998;5.862;2023-05-07T02:29:43;13.60;99.90
54431;DHT22;40342;52.998;5.862;2023-05-07T02:32:08;14.40;99.90
54431;DHT22;40342;52.998;5.862;2023-05-07T02:34:34;13.60;99.90
54431;DHT22;40342;52.998;5.862;2023-05-07T02:36:59;13.50;99.90
54431;DHT22;40342;52.998;5.862;2023-05-07T02:39:25;13.50;99.90
54431;DHT22;40342;52.998;5.862;2023-05-07T02:41:51;13.50;99.90
54431;DHT22;40342;52.998;5.862;2023-05-07T02:44:16;13.50;99.90
54431;DHT22;40342;52.998;5.862;2023-05-07T02:46:42;13.50;99.90
54431;DHT22;40342;52.998;5.862;2023-05-07T02:49:07;13.40;99.90
54431;DHT22;40342;52.998;5.862;2023-05-07T02:51:33;13.40;99.90
54431;DHT22;40342;52.998;5.862;2023-05-07T02:53:58;13.30;99.90
54431;DHT22;40342;52.998;5.862;2023-05-07T02:56:26;13.30;99.90
54431;DHT22;40342;52.998;5.862;2023-05-07T02:58:52;13.30;99.90
54431;DHT22;40342;52.998;5.862;2023-05-07T03:01:17;13.30;99.90
54431;DHT22;40342;52.998;5.862;2023-05-07T03:03:43;13.20;99.90
54431;DHT22;40342;52.998;5.862;2023-05-07T03:06:09;13.30;99.90
54431;DHT22;40342;52.998;5.862;2023-05-07T03:08:35;13.20;99.90
54431;DHT22;40342;52.998;5.862;2023-05-07T03:11:00;13.20;99.90
54431;DHT22;40342;52.998;5.862;2023-05-07T03:13:26;13.20;99.90
54431;DHT22;40342;52.998;5.862;2023-05-07T03:15:51;13.20;99.90
54431;DHT22;40342;52.998;5.862;2023-05-07T03:18:17;13.10;99.90
54431;DHT22;40342;52.998;5.862;2023-05-07T03:20:42;13.10;99.90
54431;DHT22;40342;52.998;5.862;2023-05-07T03:23:08;13.10;99.90
54431;DHT22;40342;52.998;5.862;2023-05-07T03:25:33;13.10;99.90
54431;DHT22;40342;52.998;5.862;2023-05-07T03:27:59;13.10;99.90
54431;DHT22;40342;52.998;5.862;2023-05-07T03:30:24;13.10;99.90
54431;DHT22;40342;52.998;5.862;2023-05-07T03:32:50;13.10;99.90
54431;DHT22;40342;52.998;5.862;2023-05-07T03:35:16;13.00;99.90
54431;DHT22;40342;52.998;5.862;2023-05-07T03:37:42;13.00;99.90
54431;DHT22;40342;52.998;5.862;2023-05-07T03:40:08;13.00;99.90
54431;DHT22;40342;52.998;5.862;2023-05-07T03:42:35;13.00;99.90
54431;DHT22;40342;52.998;5.862;2023-05-07T03:45:01;12.90;99.90
54431;DHT22;40342;52.998;5.862;2023-05-07T03:47:26;13.90;99.90
54431;DHT22;40342;52.998;5.862;2023-05-07T03:49:52;12.90;99.90
54431;DHT22;40342;52.998;5.862;2023-05-07T03:52:19;12.90;99.90
54431;DHT22;40342;52.998;5.862;2023-05-07T03:54:49;12.90;99.90
54431;DHT22;40342;52.998;5.862;2023-05-07T03:57:14;12.80;99.90
54431;DHT22;40342;52.998;5.862;2023-05-07T03:59:40;12.80;99.90
54431;DHT22;40342;52.998;5.862;2023-05-07T04:02:06;12.80;99.90
54431;DHT22;40342;52.998;5.862;2023-05-07T04:04:31;12.80;99.90
54431;DHT22;40342;52.998;5.862;2023-05-07T04:06:58;12.70;99.90
54431;DHT22;40342;52.998;5.862;2023-05-07T04:09:24;12.70;99.90
54431;DHT22;40342;52.998;5.862;2023-05-07T04:11:50;12.70;99.90
54431;DHT22;40342;52.998;5.862;2023-05-07T04:14:16;12.60;99.90
54431;DHT22;40342;52.998;5.862;2023-05-07T04:16:41;12.60;99.90
54431;DHT22;40342;52.998;5.862;2023-05-07T04:19:07;12.60;99.90
54431;DHT22;40342;52.998;5.862;2023-05-07T04:21:33;12.60;99.90
54431;DHT22;40342;52.998;5.862;2023-05-07T04:23:58;12.50;99.90
54431;DHT22;40342;52.998;5.862;2023-05-07T04:26:24;12.50;99.90
54431;DHT22;40342;52.998;5.862;2023-05-07T04:28:49;12.50;99.90
54431;DHT22;40342;52.998;5.862;2023-05-07T04:31:15;12.50;99.90
54431;DHT22;40342;52.998;5.862;2023-05-07T04:33:41;12.50;99.90
54431;DHT22;40342;52.998;5.862;2023-05-07T04:36:06;12.50;99.90
54431;DHT22;40342;52.998;5.862;2023-05-07T04:38:32;12.50;99.90
54431;DHT22;40342;52.998;5.862;2023-05-07T04:41:03;12.50;99.90
54431;DHT22;40342;52.998;5.862;2023-05-07T04:43:29;12.50;99.90
54431;DHT22;40342;52.998;5.862;2023-05-07T04:45:55;12.50;99.90
54431;DHT22;40342;52.998;5.862;2023-05-07T04:48:20;12.50;99.90
54431;DHT22;40342;52.998;5.862;2023-05-07T04:50:52;12.50;99.90
54431;DHT22;40342;52.998;5.862;2023-05-07T04:53:18;12.40;99.90
54431;DHT22;40342;52.998;5.862;2023-05-07T04:55:44;12.50;99.90
54431;DHT22;40342;52.998;5.862;2023-05-07T04:58:10;12.40;99.90
54431;DHT22;40342;52.998;5.862;2023-05-07T05:00:37;12.40;99.90
54431;DHT22;40342;52.998;5.862;2023-05-07T05:03:03;12.40;99.90
54431;DHT22;40342;52.998;5.862;2023-05-07T05:05:29;12.40;99.90
54431;DHT22;40342;52.998;5.862;2023-05-07T05:07:54;12.40;99.90
54431;DHT22;40342;52.998;5.862;2023-05-07T05:10:21;12.30;99.90
54431;DHT22;40342;52.998;5.862;2023-05-07T05:12:47;12.40;99.90
54431;DHT22;40342;52.998;5.862;2023-05-07T05:15:12;12.40;99.90
54431;DHT22;40342;52.998;5.862;2023-05-07T05:17:38;12.30;99.90
54431;DHT22;40342;52.998;5.862;2023-05-07T05:20:04;12.30;99.90
54431;DHT22;40342;52.998;5.862;2023-05-07T05:22:31;12.30;99.90
54431;DHT22;40342;52.998;5.862;2023-05-07T05:24:57;12.30;99.90
54431;DHT22;40342;52.998;5.862;2023-05-07T05:27:22;12.30;99.90
54431;DHT22;40342;52.998;5.862;2023-05-07T05:29:48;12.30;99.90
54431;DHT22;40342;52.998;5.862;2023-05-07T05:32:14;12.30;99.90
54431;DHT22;40342;52.998;5.862;2023-05-07T05:34:39;12.30;99.90
54431;DHT22;40342;52.998;5.862;2023-05-07T05:37:05;12.30;99.90
54431;DHT22;40342;52.998;5.862;2023-05-07T05:39:30;12.30;99.90
54431;DHT22;40342;52.998;5.862;2023-05-07T05:41:56;12.30;99.90
54431;DHT22;40342;52.998;5.862;2023-05-07T05:44:21;12.30;99.90
54431;DHT22;40342;52.998;5.862;2023-05-07T05:46:47;12.30;99.90
54431;DHT22;40342;52.998;5.862;2023-05-07T05:49:15;12.20;99.90
54431;DHT22;40342;52.998;5.862;2023-05-07T05:51:40;12.20;99.90
54431;DHT22;40342;52.998;5.862;2023-05-07T05:54:06;12.30;99.90
54431;DHT22;40342;52.998;5.862;2023-05-07T05:56:31;12.30;99.90
54431;DHT22;40342;52.998;5.862;2023-05-07T05:58:57;12.30;99.90
54431;DHT22;40342;52.998;5.862;2023-05-07T06:01:23;12.30;99.90
54431;DHT22;40342;52.998;5.862;2023-05-07T06:03:48;12.30;99.90
54431;DHT22;40342;52.998;5.862;2023-05-07T06:06:14;12.30;99.90
54431;DHT22;40342;52.998;5.862;2023-05-07T06:08:40;12.40;99.90
54431;DHT22;40342;52.998;5.862;2023-05-07T06:11:05;12.40;99.90
54431;DHT22;40342;52.998;5.862;2023-05-07T06:13:31;12.50;99.90
54431;DHT22;40342;52.998;5.862;2023-05-07T06:15:56;12.50;99.90
54431;DHT22;40342;52.998;5.862;2023-05-07T06:18:22;12.50;99.90
54431;DHT22;40342;52.998;5.862;2023-05-07T06:20:48;12.50;99.90
54431;DHT22;40342;52.998;5.862;2023-05-07T06:23:14;12.50;99.90
54431;DHT22;40342;52.998;5.862;2023-05-07T06:25:39;12.50;99.90
54431;DHT22;40342;52.998;5.862;2023-05-07T06:28:05;12.60;99.90
54431;DHT22;40342;52.998;5.862;2023-05-07T06:30:31;12.60;99.90
54431;DHT22;40342;52.998;5.862;2023-05-07T06:32:56;12.70;99.90
54431;DHT22;40342;52.998;5.862;2023-05-07T06:35:22;12.70;99.90
54431;DHT22;40342;52.998;5.862;2023-05-07T06:37:48;12.80;99.90
54431;DHT22;40342;52.998;5.862;2023-05-07T06:40:15;12.90;99.90
54431;DHT22;40342;52.998;5.862;2023-05-07T06:42:42;12.90;99.90
54431;DHT22;40342;52.998;5.862;2023-05-07T06:45:08;13.00;99.90
54431;DHT22;40342;52.998;5.862;2023-05-07T06:47:34;13.00;99.90
54431;DHT22;40342;52.998;5.862;2023-05-07T06:49:59;13.10;99.90
54431;DHT22;40342;52.998;5.862;2023-05-07T06:52:25;13.10;99.90
54431;DHT22;40342;52.998;5.862;2023-05-07T06:54:51;13.10;99.90
54431;DHT22;40342;52.998;5.862;2023-05-07T06:57:17;13.10;99.90
54431;DHT22;40342;52.998;5.862;2023-05-07T06:59:42;13.20;99.90
54431;DHT22;40342;52.998;5.862;2023-05-07T07:02:08;13.20;99.90
54431;DHT22;40342;52.998;5.862;2023-05-07T07:04:33;13.20;99.90
54431;DHT22;40342;52.998;5.862;2023-05-07T07:06:59;13.30;99.90
54431;DHT22;40342;52.998;5.862;2023-05-07T07:09:25;13.30;99.90
54431;DHT22;40342;52.998;5.862;2023-05-07T07:11:50;13.40;99.90
54431;DHT22;40342;52.998;5.862;2023-05-07T07:14:16;13.40;99.90
54431;DHT22;40342;52.998;5.862;2023-05-07T07:16:41;13.40;99.90
54431;DHT22;40342;52.998;5.862;2023-05-07T07:19:08;13.50;99.90
54431;DHT22;40342;52.998;5.862;2023-05-07T07:21:33;13.50;99.90
54431;DHT22;40342;52.998;5.862;2023-05-07T07:23:59;13.50;99.90
54431;DHT22;40342;52.998;5.862;2023-05-07T07:26:24;13.60;99.90
54431;DHT22;40342;52.998;5.862;2023-05-07T07:28:50;13.60;99.90
54431;DHT22;40342;52.998;5.862;2023-05-07T07:31:16;13.70;99.90
54431;DHT22;40342;52.998;5.862;2023-05-07T07:33:41;13.70;99.90
54431;DHT22;40342;52.998;5.862;2023-05-07T07:36:07;13.70;99.90
54431;DHT22;40342;52.998;5.862;2023-05-07T07:38:33;13.70;99.90
54431;DHT22;40342;52.998;5.862;2023-05-07T07:40:59;13.70;99.90
54431;DHT22;40342;52.998;5.862;2023-05-07T07:43:25;13.80;99.90
54431;DHT22;40342;52.998;5.862;2023-05-07T07:45:50;13.80;99.90
54431;DHT22;40342;52.998;5.862;2023-05-07T07:48:16;13.80;99.90
54431;DHT22;40342;52.998;5.862;2023-05-07T07:50:41;13.90;99.90
54431;DHT22;40342;52.998;5.862;2023-05-07T07:53:07;13.90;99.90
54431;DHT22;40342;52.998;5.862;2023-05-07T07:55:38;13.90;99.90
54431;DHT22;40342;52.998;5.862;2023-05-07T07:58:04;14.00;99.90
54431;DHT22;40342;52.998;5.862;2023-05-07T08:00:29;14.00;99.90
54431;DHT22;40342;52.998;5.862;2023-05-07T08:02:55;14.10;99.90
54431;DHT22;40342;52.998;5.862;2023-05-07T08:05:20;14.10;99.90
54431;DHT22;40342;52.998;5.862;2023-05-07T08:07:47;14.10;99.90
54431;DHT22;40342;52.998;5.862;2023-05-07T08:10:17;14.20;99.90
54431;DHT22;40342;52.998;5.862;2023-05-07T08:12:48;14.30;99.90
54431;DHT22;40342;52.998;5.862;2023-05-07T08:15:14;14.30;99.90
54431;DHT22;40342;52.998;5.862;2023-05-07T08:17:40;14.40;99.90
54431;DHT22;40342;52.998;5.862;2023-05-07T08:20:06;14.50;99.90
54431;DHT22;40342;52.998;5.862;2023-05-07T08:22:32;14.50;99.90
54431;DHT22;40342;52.998;5.862;2023-05-07T08:24:57;14.50;99.90
54431;DHT22;40342;52.998;5.862;2023-05-07T08:27:23;14.60;99.90
54431;DHT22;40342;52.998;5.862;2023-05-07T08:29:48;14.60;99.90
54431;DHT22;40342;52.998;5.862;2023-05-07T08:32:15;14.70;99.90
54431;DHT22;40342;52.998;5.862;2023-05-07T08:34:40;14.60;99.90
54431;DHT22;40342;52.998;5.862;2023-05-07T08:37:06;14.60;99.90
54431;DHT22;40342;52.998;5.862;2023-05-07T08:39:31;14.70;99.90
54431;DHT22;40342;52.998;5.862;2023-05-07T08:42:00;14.70;99.90
54431;DHT22;40342;52.998;5.862;2023-05-07T08:44:26;14.70;99.90
54431;DHT22;40342;52.998;5.862;2023-05-07T08:46:54;14.80;99.90
54431;DHT22;40342;52.998;5.862;2023-05-07T08:49:21;14.70;99.90
54431;DHT22;40342;52.998;5.862;2023-05-07T08:51:47;14.80;99.90
54431;DHT22;40342;52.998;5.862;2023-05-07T08:54:16;14.90;99.90
54431;DHT22;40342;52.998;5.862;2023-05-07T08:56:42;14.90;99.90
54431;DHT22;40342;52.998;5.862;2023-05-07T08:59:07;15.00;99.90
54431;DHT22;40342;52.998;5.862;2023-05-07T09:01:33;15.00;99.90
54431;DHT22;40342;52.998;5.862;2023-05-07T09:04:01;15.10;99.90
54431;DHT22;40342;52.998;5.862;2023-05-07T09:06:26;15.20;99.90
54431;DHT22;40342;52.998;5.862;2023-05-07T09:08:53;15.30;99.90
54431;DHT22;40342;52.998;5.862;2023-05-07T09:11:20;15.40;99.90
54431;DHT22;40342;52.998;5.862;2023-05-07T09:13:47;15.50;99.90
54431;DHT22;40342;52.998;5.862;2023-05-07T09:16:12;15.60;99.90
54431;DHT22;40342;52.998;5.862;2023-05-07T09:18:44;15.60;99.90
54431;DHT22;40342;52.998;5.862;2023-05-07T09:21:17;15.70;99.90
54431;DHT22;40342;52.998;5.862;2023-05-07T09:23:43;15.80;99.90
54431;DHT22;40342;52.998;5.862;2023-05-07T09:26:09;16.00;99.90
54431;DHT22;40342;52.998;5.862;2023-05-07T09:28:41;16.10;99.90
54431;DHT22;40342;52.998;5.862;2023-05-07T09:31:08;16.20;99.90
54431;DHT22;40342;52.998;5.862;2023-05-07T09:33:34;16.30;99.90
54431;DHT22;40342;52.998;5.862;2023-05-07T09:36:04;16.40;99.90
54431;DHT22;40342;52.998;5.862;2023-05-07T09:38:32;16.50;99.90
54431;DHT22;40342;52.998;5.862;2023-05-07T09:43:33;16.50;99.90
54431;DHT22;40342;52.998;5.862;2023-05-07T09:46:15;16.60;99.90
54431;DHT22;40342;52.998;5.862;2023-05-07T09:48:43;16.70;99.90
54431;DHT22;40342;52.998;5.862;2023-05-07T09:51:22;16.80;99.90
54431;DHT22;40342;52.998;5.862;2023-05-07T09:53:52;16.90;99.90
54431;DHT22;40342;52.998;5.862;2023-05-07T09:56:18;17.10;99.90
54431;DHT22;40342;52.998;5.862;2023-05-07T09:58:45;17.20;99.90
54431;DHT22;40342;52.998;5.862;2023-05-07T10:01:12;17.30;99.90
54431;DHT22;40342;52.998;5.862;2023-05-07T10:03:41;17.40;99.90
54431;DHT22;40342;52.998;5.862;2023-05-07T10:06:09;17.40;99.90
54431;DHT22;40342;52.998;5.862;2023-05-07T10:08:36;17.40;99.90
54431;DHT22;40342;52.998;5.862;2023-05-07T10:11:03;17.50;99.90
54431;DHT22;40342;52.998;5.862;2023-05-07T10:13:29;17.60;99.90
54431;DHT22;40342;52.998;5.862;2023-05-07T10:15:55;17.60;99.90
54431;DHT22;40342;52.998;5.862;2023-05-07T10:18:22;17.70;99.90
54431;DHT22;40342;52.998;5.862;2023-05-07T10:20:56;17.70;99.90
54431;DHT22;40342;52.998;5.862;2023-05-07T10:23:23;17.80;99.90
54431;DHT22;40342;52.998;5.862;2023-05-07T10:25:50;17.90;99.90
54431;DHT22;40342;52.998;5.862;2023-05-07T10:28:17;17.90;99.90
54431;DHT22;40342;52.998;5.862;2023-05-07T10:31:03;18.00;99.90
54431;DHT22;40342;52.998;5.862;2023-05-07T10:33:31;18.20;99.90
54431;DHT22;40342;52.998;5.862;2023-05-07T10:36:00;18.20;99.90
54431;DHT22;40342;52.998;5.862;2023-05-07T10:38:27;18.30;99.90
54431;DHT22;40342;52.998;5.862;2023-05-07T10:40:53;18.40;99.90
54431;DHT22;40342;52.998;5.862;2023-05-07T10:43:19;18.40;99.90
54431;DHT22;40342;52.998;5.862;2023-05-07T10:46:15;18.40;99.90
54431;DHT22;40342;52.998;5.862;2023-05-07T10:49:06;18.40;99.90
54431;DHT22;40342;52.998;5.862;2023-05-07T10:51:33;18.50;99.90
54431;DHT22;40342;52.998;5.862;2023-05-07T10:56:41;18.60;99.90
54431;DHT22;40342;52.998;5.862;2023-05-07T11:01:54;18.60;99.90
54431;DHT22;40342;52.998;5.862;2023-05-07T11:04:21;18.60;99.90
54431;DHT22;40342;52.998;5.862;2023-05-07T11:15:12;19.00;99.90
54431;DHT22;40342;52.998;5.862;2023-05-07T11:17:58;19.10;99.90
54431;DHT22;40342;52.998;5.862;2023-05-07T11:26:07;19.40;99.90
54431;DHT22;40342;52.998;5.862;2023-05-07T11:28:41;19.40;99.90
54431;DHT22;40342;52.998;5.862;2023-05-07T11:31:07;19.40;99.90
54431;DHT22;40342;52.998;5.862;2023-05-07T11:33:34;19.50;99.90
54431;DHT22;40342;52.998;5.862;2023-05-07T11:36:02;19.50;99.90
54431;DHT22;40342;52.998;5.862;2023-05-07T11:38:29;19.50;99.90
54431;DHT22;40342;52.998;5.862;2023-05-07T11:40:57;19.60;99.90
54431;DHT22;40342;52.998;5.862;2023-05-07T11:43:23;19.60;99.90
54431;DHT22;40342;52.998;5.862;2023-05-07T11:45:49;19.70;99.90
54431;DHT22;40342;52.998;5.862;2023-05-07T11:48:16;19.80;99.90
54431;DHT22;40342;52.998;5.862;2023-05-07T15:49:06;21.30;99.90
54431;DHT22;40342;52.998;5.862;2023-05-07T15:51:34;21.30;99.90
54431;DHT22;40342;52.998;5.862;2023-05-07T15:54:00;21.20;99.90
54431;DHT22;40342;52.998;5.862;2023-05-07T15:56:26;21.20;99.90
54431;DHT22;40342;52.998;5.862;2023-05-07T15:58:51;21.10;99.90
54431;DHT22;40342;52.998;5.862;2023-05-07T16:01:18;21.00;99.90
54431;DHT22;40342;52.998;5.862;2023-05-07T16:03:43;20.90;99.90
54431;DHT22;40342;52.998;5.862;2023-05-07T16:06:09;20.90;99.90
54431;DHT22;40342;52.998;5.862;2023-05-07T16:08:37;20.90;99.90
54431;DHT22;40342;52.998;5.862;2023-05-07T16:11:04;20.80;99.90
54431;DHT22;40342;52.998;5.862;2023-05-07T16:13:30;20.80;99.90
54431;DHT22;40342;52.998;5.862;2023-05-07T16:15:56;20.80;99.90
54431;DHT22;40342;52.998;5.862;2023-05-07T16:18:25;20.80;99.90
54431;DHT22;40342;52.998;5.862;2023-05-07T16:20:51;20.80;99.90
54431;DHT22;40342;52.998;5.862;2023-05-07T16:23:16;20.80;99.90
54431;DHT22;40342;52.998;5.862;2023-05-07T16:25:42;20.70;99.90
54431;DHT22;40342;52.998;5.862;2023-05-07T16:28:08;20.70;99.90
54431;DHT22;40342;52.998;5.862;2023-05-07T16:30:33;20.70;99.90
54431;DHT22;40342;52.998;5.862;2023-05-07T16:32:59;20.70;99.90
54431;DHT22;40342;52.998;5.862;2023-05-07T16:35:24;20.60;99.90
54431;DHT22;40342;52.998;5.862;2023-05-07T16:37:50;20.60;99.90
54431;DHT22;40342;52.998;5.862;2023-05-07T16:40:16;20.50;99.90
54431;DHT22;40342;52.998;5.862;2023-05-07T16:42:41;20.50;99.90
54431;DHT22;40342;52.998;5.862;2023-05-07T16:45:07;20.50;99.90
54431;DHT22;40342;52.998;5.862;2023-05-07T16:47:33;20.40;99.90
54431;DHT22;40342;52.998;5.862;2023-05-07T16:49:59;20.40;99.90
54431;DHT22;40342;52.998;5.862;2023-05-07T16:52:26;20.30;99.90
54431;DHT22;40342;52.998;5.862;2023-05-07T16:54:51;20.30;99.90
54431;DHT22;40342;52.998;5.862;2023-05-07T16:57:23;20.30;99.90
54431;DHT22;40342;52.998;5.862;2023-05-07T16:59:48;20.30;99.90
54431;DHT22;40342;52.998;5.862;2023-05-07T17:02:14;20.30;99.90
54431;DHT22;40342;52.998;5.862;2023-05-07T17:04:39;20.50;99.90
54431;DHT22;40342;52.998;5.862;2023-05-07T17:07:05;20.30;99.90
54431;DHT22;40342;52.998;5.862;2023-05-07T17:09:30;20.30;99.90
54431;DHT22;40342;52.998;5.862;2023-05-07T17:11:56;20.20;99.90
54431;DHT22;40342;52.998;5.862;2023-05-07T17:14:21;20.10;99.90
54431;DHT22;40342;52.998;5.862;2023-05-07T17:16:47;20.10;99.90
54431;DHT22;40342;52.998;5.862;2023-05-07T17:19:13;20.10;99.90
54431;DHT22;40342;52.998;5.862;2023-05-07T17:21:38;20.10;99.90
54431;DHT22;40342;52.998;5.862;2023-05-07T17:24:04;20.10;99.90
54431;DHT22;40342;52.998;5.862;2023-05-07T17:26:30;20.10;99.90
54431;DHT22;40342;52.998;5.862;2023-05-07T17:28:56;20.10;99.90
54431;DHT22;40342;52.998;5.862;2023-05-07T17:31:21;20.10;99.90
54431;DHT22;40342;52.998;5.862;2023-05-07T17:33:47;20.10;99.90
54431;DHT22;40342;52.998;5.862;2023-05-07T17:36:12;20.00;99.90
54431;DHT22;40342;52.998;5.862;2023-05-07T17:38:38;20.00;99.90
54431;DHT22;40342;52.998;5.862;2023-05-07T17:41:03;20.00;99.90
54431;DHT22;40342;52.998;5.862;2023-05-07T17:43:29;20.00;99.90
54431;DHT22;40342;52.998;5.862;2023-05-07T17:45:54;19.90;99.90
54431;DHT22;40342;52.998;5.862;2023-05-07T17:48:20;19.90;99.90
54431;DHT22;40342;52.998;5.862;2023-05-07T17:50:46;20.50;99.90
54431;DHT22;40342;52.998;5.862;2023-05-07T17:53:11;19.70;99.90
54431;DHT22;40342;52.998;5.862;2023-05-07T17:55:44;19.70;99.90
54431;DHT22;40342;52.998;5.862;2023-05-07T17:58:10;19.60;99.90
54431;DHT22;40342;52.998;5.862;2023-05-07T18:00:36;19.60;99.90
54431;DHT22;40342;52.998;5.862;2023-05-07T18:03:02;19.50;99.90
54431;DHT22;40342;52.998;5.862;2023-05-07T18:05:29;19.40;99.90
54431;DHT22;40342;52.998;5.862;2023-05-07T18:07:55;19.40;99.90
54431;DHT22;40342;52.998;5.862;2023-05-07T18:10:22;19.30;99.90
54431;DHT22;40342;52.998;5.862;2023-05-07T18:12:47;19.30;99.90
54431;DHT22;40342;52.998;5.862;2023-05-07T18:15:13;19.20;99.90
54431;DHT22;40342;52.998;5.862;2023-05-07T18:17:39;19.10;99.90
54431;DHT22;40342;52.998;5.862;2023-05-07T18:20:05;19.10;99.90
54431;DHT22;40342;52.998;5.862;2023-05-07T18:22:33;19.00;99.90
54431;DHT22;40342;52.998;5.862;2023-05-07T18:24:58;19.00;99.90
54431;DHT22;40342;52.998;5.862;2023-05-07T18:27:24;18.90;99.90
54431;DHT22;40342;52.998;5.862;2023-05-07T18:29:50;18.80;99.90
54431;DHT22;40342;52.998;5.862;2023-05-07T18:32:15;18.80;99.90
54431;DHT22;40342;52.998;5.862;2023-05-07T18:34:41;18.70;99.90
54431;DHT22;40342;52.998;5.862;2023-05-07T18:37:07;18.70;99.90
54431;DHT22;40342;52.998;5.862;2023-05-07T18:39:34;18.70;99.90
54431;DHT22;40342;52.998;5.862;2023-05-07T18:42:00;18.60;99.90
54431;DHT22;40342;52.998;5.862;2023-05-07T18:44:25;18.60;99.90
54431;DHT22;40342;52.998;5.862;2023-05-07T18:46:51;18.50;99.90
54431;DHT22;40342;52.998;5.862;2023-05-07T18:49:17;18.40;99.90
54431;DHT22;40342;52.998;5.862;2023-05-07T18:51:43;18.40;99.90
54431;DHT22;40342;52.998;5.862;2023-05-07T18:54:09;18.30;99.90
54431;DHT22;40342;52.998;5.862;2023-05-07T18:56:34;18.30;99.90
54431;DHT22;40342;52.998;5.862;2023-05-07T18:59:00;18.20;99.90
54431;DHT22;40342;52.998;5.862;2023-05-07T19:01:25;18.20;99.90
54431;DHT22;40342;52.998;5.862;2023-05-07T19:03:51;18.20;99.90
54431;DHT22;40342;52.998;5.862;2023-05-07T19:06:16;18.10;99.90
54431;DHT22;40342;52.998;5.862;2023-05-07T19:08:42;18.10;99.90
54431;DHT22;40342;52.998;5.862;2023-05-07T19:11:08;18.00;99.90
54431;DHT22;40342;52.998;5.862;2023-05-07T19:13:33;18.00;99.90
54431;DHT22;40342;52.998;5.862;2023-05-07T19:15:59;18.00;99.90
54431;DHT22;40342;52.998;5.862;2023-05-07T19:18:24;18.00;99.90
54431;DHT22;40342;52.998;5.862;2023-05-07T19:20:50;17.90;99.90
54431;DHT22;40342;52.998;5.862;2023-05-07T19:23:16;17.90;99.90
54431;DHT22;40342;52.998;5.862;2023-05-07T19:25:41;17.90;99.90
54431;DHT22;40342;52.998;5.862;2023-05-07T19:28:07;17.80;99.90
54431;DHT22;40342;52.998;5.862;2023-05-07T19:30:37;17.80;99.90
54431;DHT22;40342;52.998;5.862;2023-05-07T19:33:02;17.70;99.90
54431;DHT22;40342;52.998;5.862;2023-05-07T19:35:28;17.70;99.90
54431;DHT22;40342;52.998;5.862;2023-05-07T19:37:54;17.70;99.90
54431;DHT22;40342;52.998;5.862;2023-05-07T19:40:19;17.50;99.90
54431;DHT22;40342;52.998;5.862;2023-05-07T19:42:45;17.50;99.90
54431;DHT22;40342;52.998;5.862;2023-05-07T19:45:13;17.50;99.90